Time;durP1;ratioP1;P1;durP2;ratioP2;P2;SDS_P1;SDS_P2;PMS_P1;PMS_P2;Temp;Humidity;BMP_temperature;BMP_pressure;BME280_temperature;BME280_humidity;BME280_pressure;Samples;Min_cycle;Max_cycle;Signal;HPM_P1;HPM_P2
2022/10/29 00:01:24;;;;;;;26.27;23.73;;;14.50;99.90;;;;;;4972274;28;20448;-73
2022/10/29 00:03:50;;;;;;;23.20;21.03;;;14.50;99.90;;;;;;4972313;28;20965;-73
2022/10/29 00:06:17;;;;;;;24.90;22.60;;;14.60;99.90;;;;;;4972489;28;20451;-73
2022/10/29 00:08:44;;;;;;;26.93;24.13;;;14.50;99.90;;;;;;4971979;28;20483;-73
2022/10/29 00:11:13;;;;;;;23.60;21.80;;;14.50;99.90;;;;;;4972102;28;20451;-73
2022/10/29 00:13:41;;;;;;;23.90;21.90;;;14.40;99.90;;;;;;4972040;28;20451;-73
2022/10/29 00:16:11;;;;;;;25.43;22.87;;;14.40;99.90;;;;;;4971960;28;20459;-75
2022/10/29 00:18:38;;;;;;;25.50;23.20;;;14.40;99.90;;;;;;4972159;28;20447;-72
2022/10/29 00:21:07;;;;;;;23.67;21.17;;;14.30;99.90;;;;;;4972070;28;20472;-75
2022/10/29 00:23:34;;;;;;;23.30;21.50;;;14.30;99.90;;;;;;4972316;28;20817;-75
2022/10/29 00:26:02;;;;;;;24.67;21.83;;;14.30;99.90;;;;;;4972016;28;20868;-75
2022/10/29 00:28:28;;;;;;;24.17;22.10;;;14.30;99.90;;;;;;4971867;28;20789;-74
2022/10/29 00:30:55;;;;;;;31.70;22.40;;;14.20;99.90;;;;;;4971810;28;20575;-74
2022/10/29 00:33:23;;;;;;;23.63;21.67;;;14.20;99.90;;;;;;4971749;28;20829;-74
2022/10/29 00:35:57;;;;;;;22.50;20.90;;;14.20;99.90;;;;;;4971937;28;20451;-74
2022/10/29 00:38:25;;;;;;;25.47;23.17;;;14.10;99.90;;;;;;4971588;28;20932;-74
2022/10/29 00:40:52;;;;;;;23.93;21.10;;;14.10;99.90;;;;;;4971579;28;20459;-74
2022/10/29 00:43:20;;;;;;;22.97;21.13;;;14.10;99.90;;;;;;4971774;28;20460;-73
2022/10/29 00:45:51;;;;;;;20.50;18.90;;;14.10;99.90;;;;;;4971815;28;20459;-74
2022/10/29 00:48:18;;;;;;;24.13;21.73;;;14.10;99.90;;;;;;4971709;28;20934;-74
2022/10/29 00:50:48;;;;;;;19.90;18.30;;;14.20;99.90;;;;;;4971420;28;20950;-75
2022/10/29 00:53:16;;;;;;;22.03;20.00;;;14.20;99.90;;;;;;4971632;28;20459;-75
2022/10/29 00:55:43;;;;;;;22.17;20.40;;;14.20;99.90;;;;;;4971332;28;20466;-74
2022/10/29 00:58:11;;;;;;;21.53;19.80;;;14.20;99.90;;;;;;4971255;28;20479;-73
2022/10/29 01:00:38;;;;;;;22.13;20.33;;;14.20;99.90;;;;;;4971135;28;21008;-74
2022/10/29 01:03:05;;;;;;;27.33;22.70;;;14.20;99.90;;;;;;4971778;28;20487;-75
2022/10/29 01:05:34;;;;;;;24.37;21.93;;;14.20;99.90;;;;;;4971937;28;20452;-75
2022/10/29 01:08:03;;;;;;;23.27;21.23;;;14.20;99.90;;;;;;4971618;28;20447;-75
2022/10/29 01:10:38;;;;;;;22.47;20.60;;;14.20;99.90;;;;;;4971085;28;20494;-75
2022/10/29 01:13:18;;;;;;;22.07;20.27;;;14.20;99.90;;;;;;4971407;28;20864;-75
2022/10/29 01:15:55;;;;;;;22.30;20.37;;;14.20;99.90;;;;;;4971361;28;20827;-76
2022/10/29 01:18:28;;;;;;;23.33;21.30;;;14.20;99.90;;;;;;4971131;28;20482;-75
2022/10/29 01:21:28;;;;;;;24.57;22.20;;;14.20;99.90;;;;;;4971174;28;20458;-75
2022/10/29 01:24:27;;;;;;;25.10;22.70;;;14.20;99.90;;;;;;4970639;28;20969;-73
2022/10/29 01:27:23;;;;;;;24.47;22.23;;;14.20;99.90;;;;;;4970216;28;20451;-75
2022/10/29 01:30:01;;;;;;;24.30;22.10;;;14.10;99.90;;;;;;4970852;28;20491;-77
2022/10/29 01:32:36;;;;;;;25.40;23.53;;;14.10;99.90;;;;;;4970797;28;20829;-77
2022/10/29 01:35:09;;;;;;;24.23;22.40;;;14.10;99.90;;;;;;4971008;28;20454;-76
2022/10/29 01:37:45;;;;;;;22.87;20.73;;;14.00;99.90;;;;;;4970585;28;20463;-77
2022/10/29 01:40:21;;;;;;;22.20;20.33;;;14.10;99.90;;;;;;4970781;28;20457;-77
2022/10/29 01:42:53;;;;;;;23.60;21.57;;;14.00;99.90;;;;;;4971053;28;20965;-75
2022/10/29 01:45:23;;;;;;;22.93;20.47;;;14.00;99.90;;;;;;4971162;28;20452;-75
2022/10/29 01:47:55;;;;;;;21.50;19.63;;;14.00;99.90;;;;;;4970973;28;20447;-76
2022/10/29 01:50:24;;;;;;;21.40;19.80;;;14.00;99.90;;;;;;4970704;28;21032;-75
2022/10/29 01:52:52;;;;;;;21.77;19.80;;;14.00;99.90;;;;;;4970992;28;20796;-75
2022/10/29 01:55:21;;;;;;;22.33;20.40;;;14.10;99.90;;;;;;4971197;28;20566;-75
2022/10/29 01:57:48;;;;;;;22.30;20.43;;;14.00;99.90;;;;;;4971131;28;20471;-75
2022/10/29 02:00:17;;;;;;;20.60;19.20;;;14.00;99.90;;;;;;4970528;28;20525;-74
2022/10/29 02:02:59;;;;;;;21.90;20.00;;;13.90;99.90;;;;;;4970809;28;20447;-74
2022/10/29 02:05:32;;;;;;;23.33;20.90;;;13.90;99.90;;;;;;4970553;28;20471;-75
2022/10/29 02:08:06;;;;;;;22.80;20.53;;;13.80;99.90;;;;;;4970722;28;20455;-75
2022/10/29 02:10:39;;;;;;;23.47;21.63;;;13.80;99.90;;;;;;4970884;28;21019;-74
2022/10/29 02:13:07;;;;;;;23.73;22.03;;;13.80;99.90;;;;;;4970700;28;20456;-74
2022/10/29 02:15:37;;;;;;;25.10;23.03;;;13.80;99.90;;;;;;4970752;28;20464;-74
2022/10/29 02:18:07;;;;;;;23.13;21.53;;;13.80;99.90;;;;;;4970774;28;20463;-74
2022/10/29 02:20:35;;;;;;;25.30;22.87;;;13.80;99.90;;;;;;4970844;28;20444;-75
2022/10/29 02:23:01;;;;;;;23.53;21.40;;;13.80;99.90;;;;;;4970717;28;20462;-74
2022/10/29 02:25:29;;;;;;;22.10;20.20;;;13.80;99.90;;;;;;4970471;28;20806;-75
2022/10/29 02:27:56;;;;;;;20.47;18.90;;;13.80;99.90;;;;;;4970606;28;20957;-74
2022/10/29 02:30:23;;;;;;;21.70;19.87;;;13.90;99.90;;;;;;4970567;28;20484;-75
2022/10/29 02:32:49;;;;;;;20.93;19.10;;;13.90;99.90;;;;;;4970720;28;20459;-75
2022/10/29 02:35:17;;;;;;;21.57;19.73;;;13.90;99.90;;;;;;4970596;28;20467;-75
2022/10/29 02:37:44;;;;;;;21.80;19.87;;;13.90;99.90;;;;;;4970590;28;20460;-74
2022/10/29 02:40:12;;;;;;;21.10;19.63;;;13.90;99.90;;;;;;4973334;28;20448;-75
2022/10/29 02:42:39;;;;;;;21.73;19.70;;;13.90;99.90;;;;;;4973948;28;20462;-75
2022/10/29 02:45:06;;;;;;;20.80;19.47;;;13.90;99.90;;;;;;4973774;28;20452;-75
2022/10/29 02:47:33;;;;;;;21.30;19.60;;;13.90;99.90;;;;;;4973882;28;20946;-75
2022/10/29 02:49:59;;;;;;;22.50;20.40;;;13.90;99.90;;;;;;4973631;28;20491;-74
2022/10/29 02:52:28;;;;;;;19.33;18.03;;;13.80;99.90;;;;;;4973663;28;20459;-74
2022/10/29 02:54:54;;;;;;;21.73;20.00;;;13.80;99.90;;;;;;4973467;28;20703;-74
2022/10/29 02:57:21;;;;;;;21.70;20.20;;;13.80;99.90;;;;;;4973555;28;20524;-73
2022/10/29 02:59:48;;;;;;;22.23;20.60;;;13.80;99.90;;;;;;4973522;28;20519;-73
2022/10/29 03:02:14;;;;;;;22.03;20.07;;;13.90;99.90;;;;;;4973574;28;20455;-74
2022/10/29 03:04:43;;;;;;;23.83;21.50;;;13.90;99.90;;;;;;4973551;28;20457;-73
2022/10/29 03:07:09;;;;;;;24.10;21.60;;;13.90;99.90;;;;;;4973503;28;20460;-74
2022/10/29 03:09:37;;;;;;;25.80;20.83;;;13.90;99.90;;;;;;4973446;28;20483;-74
2022/10/29 03:12:04;;;;;;;22.93;20.83;;;13.90;99.90;;;;;;4973601;28;20942;-74
2022/10/29 03:14:31;;;;;;;24.07;21.97;;;13.90;99.90;;;;;;4973670;28;20459;-74
2022/10/29 03:16:58;;;;;;;25.20;22.67;;;13.90;99.90;;;;;;4973594;28;20452;-74
2022/10/29 03:19:25;;;;;;;23.00;21.50;;;13.90;99.90;;;;;;4973613;28;20471;-73
2022/10/29 03:21:51;;;;;;;22.57;21.07;;;13.80;99.90;;;;;;4973342;28;20804;-74
2022/10/29 03:24:18;;;;;;;22.40;20.80;;;13.80;99.90;;;;;;4973251;28;20459;-74
2022/10/29 03:26:46;;;;;;;23.93;21.63;;;13.80;99.90;;;;;;4973214;28;20452;-73
2022/10/29 03:29:13;;;;;;;24.27;21.77;;;13.80;99.90;;;;;;4973119;28;20459;-73
2022/10/29 03:31:39;;;;;;;22.30;20.73;;;13.90;99.90;;;;;;4973067;28;20460;-74
2022/10/29 03:34:06;;;;;;;22.13;20.57;;;13.90;99.90;;;;;;4973307;28;20478;-75
2022/10/29 03:36:33;;;;;;;22.93;21.23;;;13.90;99.90;;;;;;4973317;28;20454;-75
2022/10/29 03:39:00;;;;;;;21.63;19.90;;;13.90;99.90;;;;;;4972753;28;20459;-74
2022/10/29 03:41:26;;;;;;;23.77;22.00;;;13.90;99.90;;;;;;4972907;28;20456;-75
2022/10/29 03:43:55;;;;;;;22.80;21.10;;;13.90;99.90;;;;;;4972806;28;20911;-75
2022/10/29 03:46:21;;;;;;;22.37;20.80;;;13.90;99.90;;;;;;4972850;28;20455;-75
2022/10/29 03:48:49;;;;;;;25.57;23.23;;;13.90;99.90;;;;;;4973005;28;20456;-75
2022/10/29 03:51:16;;;;;;;22.73;21.07;;;13.90;99.90;;;;;;4972298;28;20491;-75
2022/10/29 03:53:43;;;;;;;21.27;19.87;;;13.90;99.90;;;;;;4972682;28;20455;-75
2022/10/29 03:56:10;;;;;;;22.60;20.87;;;13.90;99.90;;;;;;4972734;28;20462;-75
2022/10/29 03:58:37;;;;;;;22.70;20.87;;;13.90;99.90;;;;;;4972409;28;20479;-74
2022/10/29 04:01:06;;;;;;;22.60;20.67;;;13.90;99.90;;;;;;4972614;28;20471;-74
2022/10/29 04:03:35;;;;;;;24.97;22.60;;;13.90;99.90;;;;;;4972610;28;20455;-73
2022/10/29 04:06:09;;;;;;;24.33;21.80;;;13.90;99.90;;;;;;4972605;28;20841;-74
2022/10/29 04:08:36;;;;;;;21.10;19.80;;;14.00;99.90;;;;;;4972494;28;20459;-73
2022/10/29 04:11:03;;;;;;;21.60;20.17;;;14.00;99.90;;;;;;4972485;28;20491;-74
2022/10/29 04:13:29;;;;;;;20.47;19.20;;;14.00;99.90;;;;;;4972337;28;20460;-73
2022/10/29 04:15:56;;;;;;;22.03;20.47;;;14.00;99.90;;;;;;4972218;28;20458;-75
2022/10/29 04:18:25;;;;;;;21.80;20.53;;;14.00;99.90;;;;;;4972494;28;20451;-75
2022/10/29 04:20:52;;;;;;;23.20;21.70;;;14.10;99.90;;;;;;4972509;28;20443;-75
2022/10/29 04:23:19;;;;;;;23.80;21.43;;;14.00;99.90;;;;;;4972584;28;20462;-76
2022/10/29 04:25:55;;;;;;;22.23;20.03;;;14.00;99.90;;;;;;4972589;28;20456;-75
2022/10/29 04:28:22;;;;;;;21.83;20.53;;;14.00;99.90;;;;;;4972478;28;20490;-76
2022/10/29 04:30:48;;;;;;;21.23;20.00;;;14.00;99.90;;;;;;4972245;28;20495;-74
2022/10/29 04:33:15;;;;;;;21.10;19.50;;;13.90;99.90;;;;;;4972224;28;20455;-75
2022/10/29 04:35:43;;;;;;;21.37;19.70;;;13.90;99.90;;;;;;4972193;28;20452;-75
2022/10/29 04:38:11;;;;;;;21.70;19.77;;;13.90;99.90;;;;;;4971691;28;20447;-75
2022/10/29 04:40:38;;;;;;;21.17;19.80;;;13.80;99.90;;;;;;4971742;28;20455;-73
2022/10/29 04:43:04;;;;;;;22.10;20.80;;;13.90;99.90;;;;;;4971893;28;20458;-73
2022/10/29 04:45:31;;;;;;;21.90;20.33;;;13.80;99.90;;;;;;4971748;28;20455;-74
2022/10/29 04:48:01;;;;;;;23.77;21.90;;;13.80;99.90;;;;;;4971588;28;20456;-74
2022/10/29 04:50:28;;;;;;;21.77;20.37;;;13.80;99.90;;;;;;4971362;28;20495;-73
2022/10/29 04:52:59;;;;;;;22.83;21.30;;;13.70;99.90;;;;;;4971286;28;20459;-74
2022/10/29 04:55:26;;;;;;;22.70;20.63;;;13.70;99.90;;;;;;4971430;28;20448;-74
2022/10/29 04:57:53;;;;;;;22.60;20.70;;;13.60;99.90;;;;;;4971200;28;20558;-73
2022/10/29 05:00:21;;;;;;;22.40;20.40;;;13.60;99.90;;;;;;4971019;28;20585;-73
2022/10/29 05:02:48;;;;;;;22.27;20.57;;;13.50;99.90;;;;;;4970375;28;20451;-73
2022/10/29 05:05:15;;;;;;;20.83;19.63;;;13.50;99.90;;;;;;4971031;28;20487;-73
2022/10/29 05:07:42;;;;;;;21.87;20.10;;;13.40;99.90;;;;;;4970841;28;20455;-73
2022/10/29 05:10:11;;;;;;;21.37;19.90;;;13.40;99.90;;;;;;4970769;28;20506;-72
2022/10/29 05:12:38;;;;;;;21.57;19.80;;;13.40;99.90;;;;;;4970836;28;20455;-74
2022/10/29 05:15:06;;;;;;;23.33;21.43;;;13.40;99.90;;;;;;4971048;28;20447;-74
2022/10/29 05:17:37;;;;;;;23.47;20.37;;;13.30;99.90;;;;;;4971012;28;20456;-74
2022/10/29 05:20:05;;;;;;;21.03;19.60;;;13.30;99.90;;;;;;4971049;28;20488;-74
2022/10/29 05:22:31;;;;;;;21.63;20.10;;;13.30;99.90;;;;;;4970925;28;20455;-74
2022/10/29 05:24:58;;;;;;;22.43;21.03;;;13.30;99.90;;;;;;4970712;28;20456;-74
2022/10/29 05:27:26;;;;;;;23.10;21.20;;;13.30;99.90;;;;;;4970436;28;20455;-73
2022/10/29 05:29:53;;;;;;;21.63;20.30;;;13.30;99.90;;;;;;4970451;28;20455;-73
2022/10/29 05:32:20;;;;;;;21.87;20.17;;;13.30;99.90;;;;;;4971086;28;20462;-74
2022/10/29 05:34:46;;;;;;;22.37;20.40;;;13.20;99.90;;;;;;4970873;28;20459;-72
2022/10/29 05:37:13;;;;;;;21.70;20.20;;;13.20;99.90;;;;;;4970674;28;20456;-72
2022/10/29 05:39:40;;;;;;;22.73;21.07;;;13.20;99.90;;;;;;4970493;28;20567;-72
2022/10/29 05:42:07;;;;;;;23.30;21.27;;;13.20;99.90;;;;;;4970789;28;20448;-72
2022/10/29 05:44:35;;;;;;;23.17;21.50;;;13.20;99.90;;;;;;4971051;28;20452;-72
2022/10/29 05:47:01;;;;;;;23.30;21.30;;;13.20;99.90;;;;;;4971014;28;20456;-72
2022/10/29 05:49:28;;;;;;;23.30;21.80;;;13.10;99.90;;;;;;4970865;28;20453;-73
2022/10/29 05:51:55;;;;;;;23.07;21.57;;;13.00;99.90;;;;;;4970561;28;20726;-73
2022/10/29 05:54:21;;;;;;;24.20;22.47;;;13.10;99.90;;;;;;4970350;28;20452;-74
2022/10/29 05:56:48;;;;;;;22.20;20.70;;;13.00;99.90;;;;;;4970673;28;20451;-74
2022/10/29 05:59:15;;;;;;;23.07;21.07;;;13.00;99.90;;;;;;4970201;28;20491;-73
2022/10/29 06:01:43;;;;;;;22.87;20.83;;;12.90;99.90;;;;;;4970249;28;20871;-74
2022/10/29 06:04:10;;;;;;;24.03;21.90;;;12.90;99.90;;;;;;4970221;28;20463;-74
2022/10/29 06:06:36;;;;;;;23.17;21.20;;;13.00;99.90;;;;;;4970292;28;20456;-74
2022/10/29 06:09:03;;;;;;;23.90;22.07;;;12.90;99.90;;;;;;4970477;28;20462;-75
2022/10/29 06:11:30;;;;;;;24.60;22.63;;;12.90;99.90;;;;;;4970377;28;21029;-75
2022/10/29 06:13:57;;;;;;;23.83;21.83;;;12.90;99.90;;;;;;4972872;28;20454;-76
2022/10/29 06:16:23;;;;;;;23.97;22.23;;;12.90;99.90;;;;;;4972938;28;20462;-76
2022/10/29 06:18:51;;;;;;;23.53;21.83;;;12.90;99.90;;;;;;4973497;28;20973;-76
2022/10/29 06:21:18;;;;;;;27.67;23.80;;;12.90;99.90;;;;;;4973458;28;20452;-77
2022/10/29 06:23:45;;;;;;;22.97;21.40;;;12.90;99.90;;;;;;4973173;28;20818;-77
2022/10/29 06:26:11;;;;;;;23.07;20.97;;;12.90;99.90;;;;;;4972890;28;20687;-76
2022/10/29 06:28:38;;;;;;;22.73;21.23;;;12.90;99.90;;;;;;4972914;28;20467;-76
2022/10/29 06:31:05;;;;;;;24.77;22.80;;;13.00;99.90;;;;;;4972808;28;20500;-77
2022/10/29 06:33:32;;;;;;;24.07;21.90;;;13.00;99.90;;;;;;4972820;28;20463;-77
2022/10/29 06:36:00;;;;;;;25.27;23.40;;;13.00;99.90;;;;;;4972939;28;20451;-76
2022/10/29 06:38:27;;;;;;;23.37;21.47;;;13.10;99.90;;;;;;4972562;28;20470;-76
2022/10/29 06:40:54;;;;;;;22.50;20.27;;;13.00;99.90;;;;;;4972616;28;20448;-76
2022/10/29 06:43:21;;;;;;;22.73;21.33;;;13.00;99.90;;;;;;4972906;28;20451;-76
2022/10/29 06:45:49;;;;;;;21.33;20.03;;;13.00;99.90;;;;;;4972950;28;20455;-76
2022/10/29 06:48:16;;;;;;;23.27;21.77;;;13.10;99.90;;;;;;4972927;28;20868;-76
2022/10/29 06:50:43;;;;;;;22.77;20.67;;;13.10;99.90;;;;;;4972462;28;20487;-75
2022/10/29 06:53:13;;;;;;;22.73;20.27;;;13.20;99.90;;;;;;4972681;28;20458;-76
2022/10/29 06:55:40;;;;;;;22.37;20.67;;;13.20;99.90;;;;;;4973082;28;20680;-76
2022/10/29 06:58:13;;;;;;;23.83;21.67;;;13.20;99.90;;;;;;4972862;28;20494;-76
2022/10/29 07:00:41;;;;;;;22.57;20.80;;;13.30;99.90;;;;;;4972270;28;20709;-76
2022/10/29 07:03:08;;;;;;;22.13;20.13;;;13.40;99.90;;;;;;4972214;28;20462;-76
2022/10/29 07:05:35;;;;;;;22.80;20.90;;;13.50;99.90;;;;;;4972588;28;20456;-76
2022/10/29 07:08:02;;;;;;;20.60;19.30;;;13.70;99.90;;;;;;4972515;28;20456;-76
2022/10/29 07:10:32;;;;;;;21.73;20.20;;;13.80;99.90;;;;;;4972159;28;20479;-77
2022/10/29 07:12:59;;;;;;;22.27;20.57;;;13.90;99.90;;;;;;4972295;28;20459;-76
2022/10/29 07:15:26;;;;;;;20.83;19.33;;;14.00;99.90;;;;;;4972083;28;20682;-76
2022/10/29 07:17:56;;;;;;;21.53;19.97;;;14.10;99.90;;;;;;4972283;28;20448;-75
2022/10/29 07:20:23;;;;;;;21.63;19.80;;;14.30;99.90;;;;;;4971933;28;20466;-75
2022/10/29 07:22:50;;;;;;;21.30;19.50;;;14.50;99.90;;;;;;4972459;28;20466;-76
2022/10/29 07:25:17;;;;;;;20.73;19.00;;;14.60;99.90;;;;;;4971826;28;20471;-76
2022/10/29 07:27:45;;;;;;;21.30;19.43;;;14.70;99.90;;;;;;4972269;28;20462;-75
2022/10/29 07:30:12;;;;;;;20.50;19.10;;;14.80;99.90;;;;;;4972262;28;20451;-76
2022/10/29 07:32:39;;;;;;;18.53;16.93;;;15.00;99.90;;;;;;4972095;28;20498;-75
2022/10/29 07:35:06;;;;;;;20.93;18.87;;;15.20;99.90;;;;;;4972297;28;20952;-75
2022/10/29 07:37:33;;;;;;;19.60;18.00;;;15.30;99.90;;;;;;4972559;28;20459;-75
2022/10/29 07:40:00;;;;;;;19.07;17.60;;;15.40;99.90;;;;;;4972335;28;20458;-75
2022/10/29 07:42:27;;;;;;;20.20;18.70;;;15.50;99.90;;;;;;4972016;28;20452;-76
2022/10/29 07:44:55;;;;;;;19.17;17.67;;;15.60;99.90;;;;;;4972011;28;20455;-74
2022/10/29 07:47:22;;;;;;;18.93;17.43;;;15.60;99.90;;;;;;4972219;28;20455;-75
2022/10/29 07:49:48;;;;;;;18.23;16.83;;;15.80;99.90;;;;;;4972408;28;20451;-76
2022/10/29 07:52:15;;;;;;;19.10;17.07;;;15.90;99.90;;;;;;4971907;28;20510;-76
2022/10/29 07:54:42;;;;;;;19.93;18.23;;;16.00;99.90;;;;;;4971990;28;20671;-73
2022/10/29 07:57:08;;;;;;;19.47;18.00;;;16.30;99.90;;;;;;4971635;28;20451;-74
2022/10/29 07:59:35;;;;;;;21.37;19.63;;;16.60;99.90;;;;;;4971570;28;20492;-73
2022/10/29 08:02:03;;;;;;;18.90;17.53;;;16.90;99.90;;;;;;4971794;28;20444;-76
2022/10/29 08:04:30;;;;;;;17.97;16.40;;;17.20;99.90;;;;;;4971668;28;20969;-73
2022/10/29 08:06:56;;;;;;;19.37;17.77;;;17.40;99.90;;;;;;4971250;28;20663;-76
2022/10/29 08:09:23;;;;;;;17.70;16.50;;;17.60;99.90;;;;;;4971328;28;20463;-74
2022/10/29 08:11:50;;;;;;;17.10;15.80;;;18.10;99.90;;;;;;4971508;28;20583;-74
2022/10/29 08:14:17;;;;;;;18.37;16.77;;;18.40;99.90;;;;;;4971694;28;20507;-74
2022/10/29 08:16:43;;;;;;;17.97;16.67;;;18.70;99.90;;;;;;4971329;28;20566;-74
2022/10/29 08:19:12;;;;;;;17.27;15.93;;;18.90;99.90;;;;;;4971184;28;20452;-75
2022/10/29 08:21:39;;;;;;;16.87;15.40;;;19.50;99.90;;;;;;4971223;28;20456;-74
2022/10/29 08:24:06;;;;;;;17.80;16.27;;;19.70;99.90;;;;;;4971332;28;20475;-74
2022/10/29 08:26:33;;;;;;;17.53;16.00;;;19.70;99.90;;;;;;4971383;28;20469;-75
2022/10/29 08:28:59;;;;;;;17.73;16.20;;;19.90;99.90;;;;;;4971099;28;20463;-77
2022/10/29 08:31:26;;;;;;;16.20;15.00;;;20.20;99.90;;;;;;4971127;28;20483;-76
2022/10/29 08:33:53;;;;;;;17.57;15.80;;;20.50;99.90;;;;;;4971088;28;20458;-76
2022/10/29 08:36:21;;;;;;;18.17;16.83;;;20.90;99.90;;;;;;4969772;28;20607;-75
2022/10/29 08:38:48;;;;;;;18.10;16.60;;;21.00;99.90;;;;;;4971558;28;20467;-75
2022/10/29 08:41:30;;;;;;;17.97;16.07;;;20.80;99.90;;;;;;4971135;28;20459;-76
2022/10/29 08:44:27;;;;;;;19.83;18.27;;;20.80;99.90;;;;;;4969393;28;20471;-76
2022/10/29 08:46:57;;;;;;;17.97;16.53;;;20.50;99.90;;;;;;4970967;28;20448;-77
2022/10/29 08:49:31;;;;;;;17.37;16.00;;;20.20;99.90;;;;;;4970931;28;20493;-76
2022/10/29 08:52:04;;;;;;;17.33;16.00;;;20.30;99.90;;;;;;4970973;28;20491;-76
2022/10/29 08:54:34;;;;;;;16.97;15.73;;;20.50;99.90;;;;;;4971329;28;20452;-77
2022/10/29 08:57:07;;;;;;;15.87;14.77;;;20.90;99.90;;;;;;4971169;28;20540;-77
2022/10/29 08:59:39;;;;;;;16.90;15.13;;;21.30;99.90;;;;;;4970785;28;20505;-77
2022/10/29 09:02:14;;;;;;;16.57;15.47;;;22.00;99.90;;;;;;4970844;28;20455;-77
2022/10/29 09:04:41;;;;;;;18.97;16.90;;;21.80;99.90;;;;;;4970601;28;20557;-77
2022/10/29 09:07:21;;;;;;;16.97;15.57;;;21.60;99.90;;;;;;4970414;28;20507;-77
2022/10/29 09:09:56;;;;;;;17.07;15.57;;;21.80;99.90;;;;;;4970944;28;20458;-77
2022/10/29 09:13:00;;;;;;;16.63;15.20;;;22.00;99.90;;;;;;4970489;28;20487;-78
2022/10/29 09:15:49;;;;;;;16.83;15.47;;;22.30;99.90;;;;;;4970292;28;20688;-77
2022/10/29 09:18:29;;;;;;;18.03;16.40;;;22.50;99.90;;;;;;4970627;28;20941;-78
2022/10/29 09:21:05;;;;;;;17.93;16.43;;;23.00;99.90;;;;;;4970310;28;20447;-78
2022/10/29 09:23:56;;;;;;;19.47;17.80;;;23.20;99.90;;;;;;4970566;28;20444;-79
2022/10/29 09:26:30;;;;;;;23.57;21.17;;;23.60;99.90;;;;;;4970201;28;20455;-78
2022/10/29 09:29:06;;;;;;;19.03;17.73;;;24.00;99.90;;;;;;4970315;28;20455;-78
2022/10/29 09:31:40;;;;;;;18.90;17.03;;;24.00;99.90;;;;;;4970442;28;20483;-78
2022/10/29 09:34:16;;;;;;;18.57;17.10;;;23.80;99.90;;;;;;4970041;28;20442;-77
2022/10/29 09:36:44;;;;;;;17.47;16.03;;;23.50;99.90;;;;;;4970059;28;20459;-77
2022/10/29 09:39:14;;;;;;;18.33;16.80;;;23.50;99.90;;;;;;4969820;28;20678;-77
2022/10/29 09:41:41;;;;;;;16.83;15.70;;;23.40;99.90;;;;;;4969902;28;20450;-77
2022/10/29 09:44:19;;;;;;;16.13;14.87;;;23.70;99.90;;;;;;4969766;28;20456;-78
2022/10/29 09:46:54;;;;;;;17.00;15.50;;;23.90;99.90;;;;;;4970243;28;20448;-78
2022/10/29 09:49:34;;;;;;;18.23;16.63;;;24.30;99.90;;;;;;4969776;28;20455;-78
2022/10/29 09:52:06;;;;;;;17.97;16.67;;;25.00;98.40;;;;;;4969917;28;20494;-78
2022/10/29 09:54:34;;;;;;;16.23;15.13;;;25.30;97.40;;;;;;4969858;28;20448;-77
2022/10/29 09:57:03;;;;;;;17.27;15.90;;;25.10;96.90;;;;;;4969859;28;20448;-77
2022/10/29 09:59:34;;;;;;;16.83;15.53;;;25.10;97.00;;;;;;4969487;28;20498;-77
2022/10/29 10:02:01;;;;;;;17.00;15.70;;;25.00;97.00;;;;;;4970342;28;20447;-78
2022/10/29 10:04:32;;;;;;;18.83;17.13;;;25.20;97.10;;;;;;4970109;28;20463;-78
2022/10/29 10:07:04;;;;;;;17.60;16.60;;;25.60;96.30;;;;;;4970039;28;20459;-78
2022/10/29 10:09:51;;;;;;;17.40;16.10;;;25.50;96.00;;;;;;4970244;28;20567;-77
2022/10/29 10:12:19;;;;;;;17.23;15.87;;;25.40;95.20;;;;;;4970147;28;20495;-78
2022/10/29 10:14:46;;;;;;;16.83;15.73;;;25.40;95.20;;;;;;4970119;28;20952;-78
2022/10/29 10:17:14;;;;;;;18.10;16.53;;;25.10;95.50;;;;;;4970093;28;20459;-78
2022/10/29 10:19:44;;;;;;;16.97;15.50;;;25.30;95.10;;;;;;4969980;28;20461;-78
2022/10/29 10:22:19;;;;;;;17.37;16.20;;;25.50;95.20;;;;;;4969961;28;20942;-78
2022/10/29 10:24:47;;;;;;;16.73;15.40;;;25.40;95.00;;;;;;4970327;28;20775;-78
2022/10/29 10:27:30;;;;;;;17.20;16.00;;;25.40;94.50;;;;;;4969942;28;20451;-78
2022/10/29 10:30:19;;;;;;;21.90;17.10;;;25.60;94.20;;;;;;4969376;28;20620;-78
2022/10/29 10:32:46;;;;;;;17.13;15.83;;;25.60;93.90;;;;;;4969757;28;20577;-77
2022/10/29 10:35:26;;;;;;;17.10;15.57;;;25.60;94.40;;;;;;4969678;28;20455;-78
2022/10/29 10:37:53;;;;;;;16.37;15.20;;;25.80;93.60;;;;;;4969611;28;20448;-76
2022/10/29 10:40:24;;;;;;;16.93;15.80;;;26.10;93.70;;;;;;4969683;28;20824;-77
2022/10/29 10:42:53;;;;;;;18.33;16.43;;;26.30;93.00;;;;;;4969873;28;20447;-77
2022/10/29 10:45:25;;;;;;;16.67;15.67;;;26.70;92.30;;;;;;4969715;28;20813;-77
2022/10/29 10:47:57;;;;;;;17.57;16.60;;;26.80;91.50;;;;;;4969532;28;20455;-77
2022/10/29 10:50:27;;;;;;;18.83;17.00;;;26.60;91.70;;;;;;4969364;28;20530;-77
2022/10/29 10:52:55;;;;;;;17.63;16.33;;;27.30;90.30;;;;;;4969235;28;20921;-77
2022/10/29 10:55:27;;;;;;;17.60;16.50;;;27.30;90.00;;;;;;4969937;28;20452;-78
2022/10/29 10:58:02;;;;;;;18.43;16.93;;;27.60;89.10;;;;;;4969406;28;20579;-77
2022/10/29 11:00:34;;;;;;;18.17;16.47;;;27.90;87.40;;;;;;4971408;28;20483;-77
2022/10/29 11:03:10;;;;;;;17.23;15.97;;;28.10;84.80;;;;;;4973313;28;20973;-77
2022/10/29 11:05:41;;;;;;;17.07;15.90;;;28.00;86.30;;;;;;4973331;28;20511;-77
2022/10/29 11:08:13;;;;;;;17.47;15.70;;;28.10;85.90;;;;;;4972973;28;20451;-77
2022/10/29 11:10:45;;;;;;;16.77;15.27;;;28.10;84.30;;;;;;4972911;28;20452;-77
2022/10/29 11:13:16;;;;;;;17.70;15.93;;;28.20;83.80;;;;;;4972836;28;20490;-77
2022/10/29 11:15:49;;;;;;;16.70;15.57;;;28.10;84.30;;;;;;4972899;28;20766;-77
2022/10/29 11:18:20;;;;;;;16.73;15.77;;;27.70;86.60;;;;;;4973092;28;20904;-77
2022/10/29 11:20:53;;;;;;;16.87;15.67;;;27.90;87.10;;;;;;4973155;28;20471;-75
2022/10/29 11:23:31;;;;;;;17.67;16.30;;;28.60;84.60;;;;;;4972722;28;20872;-76
2022/10/29 11:26:07;;;;;;;17.23;16.13;;;28.70;82.50;;;;;;4972710;28;20451;-75
2022/10/29 11:28:40;;;;;;;16.83;15.93;;;28.80;81.70;;;;;;4973077;28;20491;-76
2022/10/29 11:31:14;;;;;;;17.67;16.50;;;28.60;82.00;;;;;;4972715;28;20452;-75
2022/10/29 11:33:48;;;;;;;17.83;16.20;;;28.50;82.10;;;;;;4972436;28;20567;-76
2022/10/29 11:36:19;;;;;;;18.80;17.13;;;28.80;81.20;;;;;;4972523;28;20447;-76
2022/10/29 11:38:50;;;;;;;18.23;16.93;;;28.80;81.80;;;;;;4972699;28;20451;-75
2022/10/29 11:41:26;;;;;;;16.63;15.33;;;29.20;80.20;;;;;;4972558;28;20858;-75
2022/10/29 11:43:52;;;;;;;17.07;16.00;;;29.10;80.60;;;;;;4972182;28;20474;-76
2022/10/29 11:46:32;;;;;;;17.00;15.67;;;28.90;81.00;;;;;;4972373;28;20946;-77
2022/10/29 11:49:12;;;;;;;17.10;16.10;;;29.00;81.00;;;;;;4972358;28;20830;-77
2022/10/29 11:51:51;;;;;;;17.60;16.50;;;28.90;81.70;;;;;;4972230;28;20937;-77
2022/10/29 11:54:35;;;;;;;18.47;17.37;;;28.90;81.40;;;;;;4972339;28;20455;-77
2022/10/29 11:57:09;;;;;;;19.03;17.70;;;29.10;81.50;;;;;;4972290;28;20439;-76
2022/10/29 11:59:46;;;;;;;16.30;15.30;;;28.90;81.50;;;;;;4971990;28;20487;-76
2022/10/29 12:02:25;;;;;;;18.30;17.10;;;28.30;83.40;;;;;;4971895;28;20455;-77
2022/10/29 12:04:59;;;;;;;18.73;17.00;;;28.30;84.20;;;;;;4972136;28;20459;-77
2022/10/29 12:07:41;;;;;;;19.07;17.57;;;28.50;84.20;;;;;;4971683;28;20807;-77
2022/10/29 12:10:47;;;;;;;17.53;16.43;;;28.40;83.90;;;;;;4971564;28;20452;-77
2022/10/29 12:13:24;;;;;;;18.80;17.40;;;28.50;83.30;;;;;;4932728;28;20495;-77
2022/10/29 12:16:07;;;;;;;19.30;17.63;;;28.10;84.40;;;;;;4971908;28;20463;-77
2022/10/29 12:18:41;;;;;;;19.37;17.87;;;28.10;85.60;;;;;;4971979;28;20490;-77
2022/10/29 12:21:14;;;;;;;19.90;18.50;;;28.60;85.10;;;;;;4971215;28;20456;-76
2022/10/29 12:23:51;;;;;;;20.70;18.83;;;28.80;84.80;;;;;;4971142;28;20482;-75
2022/10/29 12:26:25;;;;;;;19.63;18.17;;;29.00;84.00;;;;;;4971570;28;20456;-75
2022/10/29 12:28:59;;;;;;;18.93;16.70;;;29.00;84.80;;;;;;4971343;28;20448;-76
2022/10/29 12:31:30;;;;;;;17.33;16.33;;;29.10;84.60;;;;;;4970920;28;20459;-76
2022/10/29 12:34:03;;;;;;;18.50;17.23;;;29.10;84.20;;;;;;4970857;28;20567;-76
2022/10/29 12:36:36;;;;;;;17.67;16.53;;;29.30;84.00;;;;;;4970984;28;20492;-76
2022/10/29 12:39:09;;;;;;;17.30;16.10;;;29.00;85.20;;;;;;4971410;28;20467;-78
2022/10/29 12:41:42;;;;;;;17.80;16.40;;;28.90;85.40;;;;;;4971117;28;20456;-75
2022/10/29 12:44:17;;;;;;;17.67;16.30;;;28.30;87.60;;;;;;4970771;28;20443;-77